createdAt,value
2018-06-28T00:04:12.306Z,23.40
2018-06-28T00:09:15.795Z,23.40
2018-06-28T00:14:19.314Z,23.40
2018-06-28T00:19:22.956Z,23.40
2018-06-28T00:24:26.546Z,23.30
2018-06-28T00:29:30.046Z,23.30
2018-06-28T00:34:33.581Z,23.30
2018-06-28T00:49:43.735Z,23.30
2018-06-28T00:54:48.042Z,23.30
2018-06-28T00:59:51.566Z,23.30
2018-06-28T01:04:55.032Z,23.30
2018-06-28T01:09:58.669Z,23.30
2018-06-28T01:15:02.246Z,23.30
2018-06-28T01:20:06.593Z,23.30
2018-06-28T01:25:10.293Z,23.30
2018-06-28T01:30:14.246Z,23.30
2018-06-28T01:35:17.754Z,23.30
2018-06-28T01:40:21.280Z,23.30
2018-06-28T01:45:25.198Z,23.30
2018-06-28T01:50:28.666Z,23.30
2018-06-28T02:00:35.482Z,23.30
2018-06-28T02:05:39.016Z,23.30
2018-06-28T02:10:42.568Z,23.30
2018-06-28T02:15:46.291Z,23.30
2018-06-28T02:20:50.009Z,23.30
2018-06-28T02:25:53.694Z,23.20
2018-06-28T02:30:57.225Z,23.30
2018-06-28T02:36:00.964Z,23.20
2018-06-28T02:41:04.498Z,23.20
2018-06-28T02:46:09.096Z,23.20
2018-06-28T02:51:12.834Z,23.20
2018-06-28T02:56:16.637Z,23.20
2018-06-28T03:01:20.481Z,23.20
2018-06-28T03:06:24.548Z,23.20
2018-06-28T03:11:28.069Z,23.20
2018-06-28T03:16:32.054Z,23.20
2018-06-28T03:21:36.121Z,23.20
2018-06-28T03:26:39.701Z,23.20
2018-06-28T03:31:43.958Z,23.20
2018-06-28T03:36:47.441Z,23.20
2018-06-28T03:41:50.961Z,23.20
2018-06-28T03:46:54.486Z,23.20
2018-06-28T03:51:58.026Z,23.20
2018-06-28T03:57:01.656Z,23.20
2018-06-28T04:02:05.173Z,23.20
2018-06-28T04:12:12.870Z,23.20
2018-06-28T04:17:16.428Z,23.20
2018-06-28T04:22:29.625Z,23.30
2018-06-28T04:27:33.197Z,23.30
2018-06-28T04:37:40.101Z,23.40
2018-06-28T04:42:43.593Z,23.50
2018-06-28T04:47:47.121Z,23.50
2018-06-28T04:52:50.733Z,23.60
2018-06-28T04:57:54.331Z,23.70
2018-06-28T05:02:57.833Z,23.80
2018-06-28T05:08:01.369Z,23.80
2018-06-28T05:13:04.900Z,23.90
2018-06-28T05:18:08.601Z,23.90
2018-06-28T05:23:12.124Z,24.00
2018-06-28T05:28:16.133Z,24.00
2018-06-28T05:33:19.641Z,24.00
2018-06-28T05:38:23.142Z,24.00
2018-06-28T05:43:26.998Z,24.10
2018-06-28T05:48:30.465Z,24.10
2018-06-28T05:58:37.354Z,24.20
2018-06-28T06:03:40.817Z,24.20
2018-06-28T06:08:44.534Z,24.20
2018-06-28T06:13:48.248Z,24.20
2018-06-28T06:18:51.829Z,24.30
2018-06-28T06:23:55.313Z,24.30
2018-06-28T06:28:58.793Z,24.20
2018-06-28T06:39:08.925Z,24.40
2018-06-28T06:44:12.624Z,24.40
2018-06-28T06:54:19.372Z,24.50
2018-06-28T06:59:23.077Z,24.50
2018-06-28T07:04:26.643Z,24.50
2018-06-28T07:09:30.180Z,24.50
2018-06-28T07:19:37.281Z,24.60
2018-06-28T07:24:40.781Z,24.60
2018-06-28T07:29:44.393Z,24.30
2018-06-28T07:34:47.990Z,24.30
2018-06-28T07:39:51.730Z,24.30
2018-06-28T07:44:55.454Z,24.30
2018-06-28T07:49:59.049Z,24.30
2018-06-28T07:55:02.530Z,24.20
2018-06-28T08:00:06.921Z,24.20
2018-06-28T08:05:10.379Z,24.20
2018-06-28T08:10:13.928Z,24.20
2018-06-28T08:15:17.408Z,24.10
2018-06-28T08:20:21.004Z,24.20
2018-06-28T08:25:24.529Z,24.20
2018-06-28T08:30:28.195Z,24.20
2018-06-28T08:35:32.864Z,24.20
2018-06-28T08:40:36.373Z,24.20
2018-06-28T08:45:39.917Z,24.20
2018-06-28T08:50:43.458Z,24.40
2018-06-28T09:00:50.745Z,24.70
2018-06-28T09:05:54.330Z,25.10
2018-06-28T09:10:57.823Z,25.10
2018-06-28T09:21:05.418Z,25.30
2018-06-28T09:26:08.887Z,25.40
2018-06-28T09:31:12.426Z,25.20
2018-06-28T09:36:16.282Z,25.50
2018-06-28T09:41:19.745Z,25.50
2018-06-28T09:51:27.938Z,25.60
2018-06-28T10:01:35.384Z,25.70
2018-06-28T10:06:38.903Z,25.80
2018-06-28T10:11:42.614Z,25.80
2018-06-28T10:16:46.253Z,25.80
2018-06-28T10:32:11.717Z,26.10
2018-06-28T10:46:01.759Z,26.30
2018-06-28T10:51:06.834Z,26.30
2018-06-28T10:56:11.306Z,24.97
2018-06-28T11:01:15.796Z,24.97
2018-06-28T11:06:20.190Z,25.09
2018-06-28T11:11:25.264Z,25.07
2018-06-28T11:16:29.425Z,25.03
2018-06-28T11:21:34.109Z,25.07
2018-06-28T11:26:38.641Z,25.14
2018-06-28T11:31:43.543Z,25.04
2018-06-28T11:36:47.971Z,25.09
2018-06-28T11:41:52.269Z,25.10
2018-06-28T11:46:56.969Z,25.17
2018-06-28T11:52:01.511Z,25.18
2018-06-28T11:57:06.125Z,25.29
2018-06-28T12:02:10.356Z,25.40
2018-06-28T12:07:15.022Z,25.29
2018-06-28T12:12:19.715Z,25.31
2018-06-28T12:17:24.135Z,25.32
2018-06-28T12:22:28.621Z,25.33
2018-06-28T12:27:33.168Z,25.30
2018-06-28T12:32:37.621Z,25.35
2018-06-28T12:37:42.317Z,25.38
2018-06-28T12:47:49.337Z,25.35
2018-06-28T12:57:23.989Z,25.41
2018-06-28T13:02:28.446Z,25.46
2018-06-28T13:07:33.158Z,24.98
2018-06-28T13:12:38.212Z,24.56
2018-06-28T13:17:43.197Z,24.09
2018-06-28T13:22:48.541Z,24.55
2018-06-28T13:27:53.069Z,24.76
2018-06-28T13:33:06.166Z,24.58
2018-06-28T13:38:11.049Z,24.71
2018-06-28T13:43:15.509Z,24.63
2018-06-28T13:48:20.793Z,24.68
2018-06-28T13:53:25.424Z,24.35
2018-06-28T13:58:29.543Z,24.10
2018-06-28T14:03:34.351Z,24.06
2018-06-28T14:08:38.806Z,23.99
2018-06-28T14:13:43.510Z,24.01
2018-06-28T14:18:48.171Z,23.98
2018-06-28T14:23:52.696Z,23.93
2018-06-28T14:28:57.141Z,23.94
2018-06-28T14:34:01.614Z,24.14
2018-06-28T14:39:09.169Z,24.47
2018-06-28T14:44:14.252Z,24.13
2018-06-28T14:49:18.631Z,24.15
2018-06-28T14:54:23.306Z,24.44
2018-06-28T14:59:27.918Z,24.44
2018-06-28T15:04:33.268Z,24.15
2018-06-28T15:09:37.698Z,24.05
2018-06-28T15:14:42.882Z,24.42
2018-06-28T15:19:47.392Z,24.10
2018-06-28T15:24:52.332Z,24.08
2018-06-28T15:29:57.239Z,24.08
2018-06-28T15:35:01.718Z,24.07
2018-06-28T15:40:07.230Z,24.07
2018-06-28T15:45:11.918Z,24.07
2018-06-28T15:50:17.185Z,24.06
2018-06-28T15:55:21.413Z,24.66
2018-06-28T16:00:26.378Z,24.71
2018-06-28T16:05:30.642Z,24.19
2018-06-28T16:10:35.705Z,24.61
2018-06-28T16:16:19.971Z,24.63
2018-06-28T16:21:25.120Z,24.64
2018-06-28T16:26:29.706Z,24.66
2018-06-28T16:31:34.305Z,24.15
2018-06-28T16:36:39.050Z,24.06
2018-06-28T16:41:43.718Z,24.54
2018-06-28T16:51:37.298Z,24.19
2018-06-28T16:56:41.868Z,24.00
2018-06-28T17:01:46.799Z,23.95
2018-06-28T17:06:51.618Z,23.95
2018-06-28T17:11:56.590Z,24.22
2018-06-28T17:17:01.864Z,24.45
2018-06-28T17:22:07.398Z,24.67
2018-06-28T17:27:11.614Z,24.74
2018-06-28T17:32:15.969Z,24.69
2018-06-28T17:37:20.578Z,24.27
2018-06-28T17:42:25.460Z,24.10
2018-06-28T17:47:29.930Z,24.12
2018-06-28T17:52:34.450Z,24.11
2018-06-28T17:57:38.893Z,24.06
2018-06-28T18:02:43.413Z,24.07
2018-06-28T18:07:47.966Z,24.03
2018-06-28T18:12:53.014Z,24.04
2018-06-28T18:17:57.578Z,24.06
2018-06-28T18:23:02.119Z,24.46
2018-06-28T18:28:06.977Z,24.57
2018-06-28T18:33:11.618Z,24.60
2018-06-28T18:38:16.080Z,24.54
2018-06-28T18:43:20.649Z,24.06
2018-06-28T18:48:26.186Z,24.02
2018-06-28T18:53:31.056Z,24.00
2018-06-28T18:58:37.786Z,24.51
2018-06-28T19:03:42.321Z,24.48
2018-06-28T19:08:47.159Z,24.06
2018-06-28T19:13:57.153Z,23.94
2018-06-28T19:19:02.006Z,23.89
2018-06-28T19:24:07.002Z,23.89
2018-06-28T19:29:16.620Z,23.87
2018-06-28T19:34:21.525Z,23.85
2018-06-28T19:39:31.251Z,23.84
2018-06-28T19:44:35.806Z,23.86
2018-06-28T19:49:45.606Z,23.82
2018-06-28T19:54:50.178Z,23.84
2018-06-28T19:59:54.693Z,24.31
2018-06-28T20:04:59.424Z,23.93
2018-06-28T20:10:03.855Z,23.97
2018-06-28T20:15:13.534Z,23.81
2018-06-28T20:20:20.498Z,23.79
2018-06-28T20:25:28.565Z,24.01
2018-06-28T20:30:38.454Z,24.51
2018-06-28T20:35:43.025Z,23.98
2018-06-28T20:40:47.457Z,23.80
2018-06-28T20:45:51.991Z,23.74
2018-06-28T20:50:56.563Z,23.78
2018-06-28T20:56:01.090Z,23.79
2018-06-28T21:01:06.494Z,24.37
2018-06-28T21:06:10.998Z,24.50
2018-06-28T21:11:15.924Z,23.85
2018-06-28T21:16:22.377Z,23.74
2018-06-28T21:21:27.876Z,23.78
2018-06-28T21:26:33.027Z,23.80
2018-06-28T21:31:37.431Z,23.82
2018-06-28T21:36:41.540Z,23.84
2018-06-28T21:41:46.345Z,23.82
2018-06-28T21:46:51.753Z,23.76
2018-06-28T21:51:56.410Z,23.76
2018-06-28T21:57:00.508Z,23.78
2018-06-28T22:02:05.430Z,23.73
2018-06-28T22:07:10.177Z,23.75
2018-06-28T22:12:14.702Z,23.76
2018-06-28T22:17:19.162Z,23.66
2018-06-28T22:22:23.765Z,23.93
2018-06-28T22:27:28.403Z,23.72
2018-06-28T22:32:32.771Z,23.76
2018-06-28T22:37:37.401Z,23.73
2018-06-28T22:42:41.817Z,23.69
2018-06-28T22:47:46.655Z,23.71
2018-06-28T22:52:51.513Z,23.71
2018-06-28T22:57:56.481Z,23.67
2018-06-28T23:03:01.718Z,23.63
2018-06-28T23:08:06.369Z,23.60
2018-06-28T23:13:11.077Z,23.58
2018-06-28T23:18:15.478Z,23.59
2018-06-28T23:23:20.501Z,23.53
2018-06-28T23:28:25.148Z,23.48
2018-06-28T23:33:29.590Z,23.45
2018-06-28T23:38:34.192Z,23.51
2018-06-28T23:43:38.666Z,23.45
2018-06-28T23:48:45.680Z,23.42
2018-06-28T23:53:50.189Z,23.46
2018-06-28T23:58:55.269Z,23.43
